createdAt,value
2019-02-27T00:01:30.330Z,3.90
2019-02-27T00:03:57.194Z,3.77
2019-02-27T00:06:23.912Z,4.03
2019-02-27T00:08:50.661Z,4.40
2019-02-27T00:11:17.409Z,4.13
2019-02-27T00:13:44.266Z,4.80
2019-02-27T00:16:11.667Z,3.90
2019-02-27T00:18:38.617Z,3.83
2019-02-27T00:21:05.355Z,3.60
2019-02-27T00:23:33.679Z,3.70
2019-02-27T00:26:00.413Z,3.57
2019-02-27T00:28:28.032Z,3.60
2019-02-27T00:30:54.768Z,3.90
2019-02-27T00:33:25.044Z,3.60
2019-02-27T00:35:50.525Z,4.60
2019-02-27T00:38:17.261Z,4.60
2019-02-27T00:40:44.624Z,4.37
2019-02-27T00:43:11.359Z,4.50
2019-02-27T00:45:40.028Z,4.60
2019-02-27T00:48:06.704Z,4.57
2019-02-27T00:50:33.414Z,4.07
2019-02-27T00:53:00.260Z,4.77
2019-02-27T00:55:27.022Z,4.63
2019-02-27T00:57:54.502Z,4.33
2019-02-27T01:00:22.029Z,4.23
2019-02-27T01:02:52.597Z,4.97
2019-02-27T01:05:17.868Z,4.77
2019-02-27T01:07:44.647Z,5.10
2019-02-27T01:10:12.250Z,4.90
2019-02-27T01:12:39.863Z,4.93
2019-02-27T01:15:07.936Z,4.50
2019-02-27T01:17:35.424Z,4.67
2019-02-27T01:20:02.596Z,3.90
2019-02-27T01:22:29.477Z,4.50
2019-02-27T01:24:57.023Z,4.47
2019-02-27T01:27:23.757Z,4.57
2019-02-27T01:29:51.628Z,4.90
2019-02-27T01:32:18.708Z,4.50
2019-02-27T01:34:45.543Z,4.37
2019-02-27T01:37:12.268Z,4.03
2019-02-27T01:39:38.993Z,4.23
2019-02-27T01:42:05.740Z,4.77
2019-02-27T01:44:32.454Z,4.83
2019-02-27T01:47:01.936Z,4.40
2019-02-27T01:49:27.866Z,5.13
2019-02-27T01:51:54.754Z,4.90
2019-02-27T01:54:21.518Z,5.07
2019-02-27T01:56:48.950Z,4.47
2019-02-27T01:59:16.883Z,4.60
2019-02-27T02:01:45.985Z,5.27
2019-02-27T02:04:13.050Z,4.00
2019-02-27T02:06:39.779Z,4.67
2019-02-27T02:09:25.952Z,3.97
2019-02-27T02:11:52.718Z,3.93
2019-02-27T02:14:54.303Z,3.97
2019-02-27T02:17:32.376Z,3.70
2019-02-27T02:20:40.488Z,3.93
2019-02-27T02:23:21.217Z,4.00
2019-02-27T02:26:08.858Z,3.70
2019-02-27T02:29:29.877Z,4.20
2019-02-27T02:32:03.954Z,3.80
2019-02-27T02:35:07.709Z,3.53
2019-02-27T02:38:17.240Z,3.73
2019-02-27T02:41:20.547Z,4.23
2019-02-27T02:45:02.877Z,4.10
2019-02-27T02:47:44.065Z,4.17
2019-02-27T02:50:53.930Z,3.50
2019-02-27T02:54:04.674Z,3.47
2019-02-27T02:56:53.132Z,3.20
2019-02-27T02:59:46.630Z,3.60
2019-02-27T03:02:42.674Z,3.40
2019-02-27T03:06:00.121Z,3.30
2019-02-27T03:08:36.048Z,3.57
2019-02-27T03:11:54.733Z,3.33
2019-02-27T03:14:53.151Z,3.20
2019-02-27T03:17:54.866Z,3.00
2019-02-27T03:21:17.792Z,3.00
2019-02-27T03:23:59.097Z,2.90
2019-02-27T03:27:03.603Z,3.30
2019-02-27T03:30:03.232Z,3.07
2019-02-27T03:32:53.946Z,2.87
2019-02-27T03:35:59.874Z,3.20
2019-02-27T03:39:00.503Z,3.67
2019-02-27T03:42:04.102Z,3.10
2019-02-27T03:44:56.205Z,3.50
2019-02-27T03:48:06.730Z,3.67
2019-02-27T03:50:51.676Z,3.60
2019-02-27T03:53:29.371Z,2.80
2019-02-27T03:56:33.182Z,3.10
2019-02-27T03:59:46.673Z,4.13
2019-02-27T04:02:47.886Z,3.47
2019-02-27T04:05:52.621Z,3.50
2019-02-27T04:08:54.683Z,3.20
2019-02-27T04:11:24.900Z,3.33
2019-02-27T04:13:51.655Z,3.60
2019-02-27T04:16:18.411Z,4.00
2019-02-27T04:18:45.138Z,4.20
2019-02-27T04:21:11.885Z,4.00
2019-02-27T04:23:38.609Z,3.73
2019-02-27T04:26:06.575Z,4.00
2019-02-27T04:28:33.486Z,4.30
2019-02-27T04:31:00.538Z,4.33
2019-02-27T04:33:27.276Z,3.70
2019-02-27T04:35:54.005Z,3.33
2019-02-27T04:38:20.745Z,3.97
2019-02-27T04:40:47.475Z,3.40
2019-02-27T04:43:14.209Z,3.40
2019-02-27T04:45:40.961Z,3.87
2019-02-27T04:48:07.663Z,4.07
2019-02-27T04:50:35.613Z,3.43
2019-02-27T04:53:02.335Z,3.67
2019-02-27T04:55:29.369Z,3.63
2019-02-27T04:57:56.399Z,3.70
2019-02-27T05:00:26.032Z,4.17
2019-02-27T05:02:53.542Z,3.30
2019-02-27T05:05:20.833Z,3.50
2019-02-27T05:07:47.569Z,3.10
2019-02-27T05:10:14.319Z,3.27
2019-02-27T05:12:41.056Z,2.80
2019-02-27T05:15:10.686Z,2.90
2019-02-27T05:17:37.398Z,2.77
2019-02-27T05:20:04.331Z,2.90
2019-02-27T05:22:31.245Z,2.87
2019-02-27T05:24:57.939Z,3.70
2019-02-27T05:27:24.703Z,3.57
2019-02-27T05:29:51.402Z,2.90
2019-02-27T05:32:18.467Z,3.00
2019-02-27T05:34:49.538Z,3.80
2019-02-27T05:37:13.839Z,3.67
2019-02-27T05:39:40.575Z,3.73
2019-02-27T05:42:07.295Z,3.40
2019-02-27T05:44:34.339Z,3.60
2019-02-27T05:47:01.064Z,3.50
2019-02-27T05:49:27.773Z,3.43
2019-02-27T05:51:54.635Z,4.13
2019-02-27T05:54:21.343Z,3.10
2019-02-27T05:56:49.744Z,3.80
2019-02-27T05:59:18.908Z,3.30
2019-02-27T06:01:45.643Z,3.37
2019-02-27T06:04:12.782Z,3.23
2019-02-27T06:06:44.862Z,3.30
2019-02-27T06:09:10.384Z,3.43
2019-02-27T06:11:39.019Z,3.20
2019-02-27T06:14:05.769Z,3.10
2019-02-27T06:16:37.013Z,3.97
2019-02-27T06:19:03.850Z,3.30
2019-02-27T06:21:31.641Z,3.27
2019-02-27T06:23:58.388Z,3.90
2019-02-27T06:26:25.827Z,3.60
2019-02-27T06:28:52.571Z,3.40
2019-02-27T06:31:25.143Z,3.93
2019-02-27T06:33:52.019Z,3.60
2019-02-27T06:36:18.770Z,3.63
2019-02-27T06:38:45.486Z,3.70
2019-02-27T06:41:15.410Z,4.47
2019-02-27T06:43:40.889Z,3.80
2019-02-27T06:46:07.590Z,3.80
2019-02-27T06:48:43.549Z,3.40
2019-02-27T06:51:10.359Z,3.87
2019-02-27T06:54:20.817Z,4.27
2019-02-27T06:56:47.568Z,4.57
2019-02-27T06:59:14.437Z,4.20
2019-02-27T07:01:45.030Z,3.93
2019-02-27T07:04:12.051Z,11.60
2019-02-27T07:06:39.151Z,3.80
2019-02-27T07:09:11.321Z,4.30
2019-02-27T07:11:34.696Z,3.60
2019-02-27T07:14:01.487Z,3.57
2019-02-27T07:16:28.461Z,3.30
2019-02-27T07:18:55.451Z,3.50
2019-02-27T07:21:22.189Z,3.27
2019-02-27T07:23:48.927Z,3.90
2019-02-27T07:26:15.997Z,3.60
2019-02-27T07:28:45.932Z,3.20
2019-02-27T07:31:17.516Z,3.37
2019-02-27T07:33:44.409Z,2.93
2019-02-27T07:36:11.164Z,3.00
2019-02-27T07:38:37.920Z,3.30
2019-02-27T07:41:04.676Z,4.30
2019-02-27T07:43:31.652Z,4.47
2019-02-27T07:45:58.428Z,3.70
2019-02-27T07:48:26.806Z,3.30
2019-02-27T07:50:53.539Z,2.80
2019-02-27T07:53:20.266Z,3.70
2019-02-27T07:55:47.467Z,3.53
2019-02-27T07:58:14.355Z,3.10
2019-02-27T08:00:43.542Z,3.23
2019-02-27T08:03:12.959Z,3.17
2019-02-27T08:05:38.930Z,3.23
2019-02-27T08:08:05.750Z,3.33
2019-02-27T08:10:36.775Z,3.40
2019-02-27T08:13:03.108Z,3.60
2019-02-27T08:15:30.399Z,2.87
2019-02-27T08:17:58.633Z,3.10
2019-02-27T08:20:25.571Z,2.93
2019-02-27T08:22:52.510Z,3.10
2019-02-27T08:25:19.404Z,3.00
2019-02-27T08:27:46.168Z,2.73
2019-02-27T08:30:15.436Z,3.50
2019-02-27T08:32:42.186Z,2.90
2019-02-27T08:35:08.987Z,3.20
2019-02-27T08:37:36.418Z,3.30
2019-02-27T08:40:03.858Z,3.60
2019-02-27T08:42:30.618Z,2.90
2019-02-27T08:44:57.357Z,5.57
2019-02-27T08:47:24.122Z,4.60
2019-02-27T08:49:51.006Z,12.17
2019-02-27T08:52:17.781Z,4.07
2019-02-27T08:54:47.416Z,5.00
2019-02-27T08:57:14.448Z,4.60
2019-02-27T08:59:41.446Z,4.57
2019-02-27T09:02:08.166Z,5.30
2019-02-27T09:04:35.112Z,5.47
2019-02-27T09:07:03.420Z,5.40
2019-02-27T09:09:30.948Z,5.67
2019-02-27T09:11:58.147Z,5.70
2019-02-27T09:14:24.994Z,6.10
2019-02-27T09:16:51.987Z,6.80
2019-02-27T09:19:20.607Z,6.80
2019-02-27T09:21:47.461Z,6.83
2019-02-27T09:24:14.272Z,7.13
2019-02-27T09:26:42.353Z,7.20
2019-02-27T09:29:09.778Z,7.70
2019-02-27T09:31:37.675Z,7.40
2019-02-27T09:34:05.494Z,7.50
2019-02-27T09:36:34.230Z,8.27
2019-02-27T09:39:03.678Z,7.83
2019-02-27T09:41:32.304Z,7.40
2019-02-27T09:44:01.330Z,7.90
2019-02-27T09:46:27.788Z,7.90
2019-02-27T09:48:56.306Z,8.17
2019-02-27T09:51:23.071Z,7.87
2019-02-27T09:53:49.968Z,8.70
2019-02-27T09:56:17.126Z,7.80
2019-02-27T09:58:45.641Z,8.43
2019-02-27T10:01:16.234Z,9.30
2019-02-27T10:03:43.146Z,9.03
2019-02-27T10:06:09.868Z,7.57
2019-02-27T10:08:36.988Z,7.70
2019-02-27T10:11:03.914Z,7.93
2019-02-27T10:13:31.088Z,8.03
2019-02-27T10:16:01.348Z,7.80
2019-02-27T10:18:26.832Z,7.93
2019-02-27T10:20:54.932Z,8.17
2019-02-27T10:23:21.665Z,7.07
2019-02-27T10:25:49.913Z,7.70
2019-02-27T10:28:16.999Z,8.20
2019-02-27T10:30:44.190Z,6.90
2019-02-27T10:33:11.924Z,8.57
2019-02-27T10:35:38.888Z,8.23
2019-02-27T10:38:08.487Z,7.77
2019-02-27T10:40:36.014Z,6.80
2019-02-27T10:43:02.788Z,6.40
2019-02-27T10:45:29.693Z,7.03
2019-02-27T10:47:56.667Z,7.50
2019-02-27T10:50:24.754Z,7.50
2019-02-27T10:52:53.226Z,7.70
2019-02-27T10:55:23.333Z,7.40
2019-02-27T10:57:50.105Z,7.43
2019-02-27T11:00:29.092Z,8.20
2019-02-27T11:02:55.838Z,8.30
2019-02-27T11:05:22.906Z,7.87
2019-02-27T11:07:52.966Z,7.60
2019-02-27T11:10:19.000Z,7.10
2019-02-27T11:12:49.067Z,6.80
2019-02-27T11:15:15.982Z,7.40
2019-02-27T11:17:43.385Z,7.27
2019-02-27T11:20:12.626Z,7.57
2019-02-27T11:22:41.441Z,7.83
2019-02-27T11:25:11.431Z,8.10
2019-02-27T11:27:40.235Z,7.10
2019-02-27T11:30:13.123Z,6.57
2019-02-27T11:32:39.855Z,6.80
2019-02-27T11:35:06.813Z,7.10
2019-02-27T11:37:33.740Z,7.10
2019-02-27T11:40:01.118Z,7.07
2019-02-27T11:42:28.985Z,6.63
2019-02-27T11:44:57.175Z,5.23
2019-02-27T11:47:24.151Z,6.30
2019-02-27T11:49:50.925Z,6.43
2019-02-27T11:52:17.678Z,5.40
2019-02-27T11:54:44.425Z,5.23
2019-02-27T11:57:11.371Z,4.60
2019-02-27T11:59:38.157Z,4.57
2019-02-27T12:02:05.279Z,5.00
2019-02-27T12:04:32.029Z,4.77
2019-02-27T12:06:59.089Z,4.90
2019-02-27T12:09:25.826Z,5.10
2019-02-27T12:11:53.059Z,4.30
2019-02-27T12:14:19.735Z,2.40
2019-02-27T12:16:48.604Z,3.50
2019-02-27T12:19:18.077Z,3.60
2019-02-27T12:21:45.096Z,3.57
2019-02-27T12:24:11.949Z,3.23
2019-02-27T12:26:38.641Z,2.87
2019-02-27T12:29:05.371Z,3.20
2019-02-27T12:31:32.109Z,2.90
2019-02-27T12:34:02.458Z,3.57
2019-02-27T12:36:27.595Z,3.30
2019-02-27T12:38:58.199Z,3.53
2019-02-27T12:41:25.017Z,3.27
2019-02-27T12:43:52.731Z,2.80
2019-02-27T12:46:20.361Z,2.60
2019-02-27T12:48:47.537Z,2.60
2019-02-27T12:51:14.414Z,3.33
2019-02-27T12:53:42.765Z,2.80
2019-02-27T12:56:11.941Z,2.43
2019-02-27T12:58:38.717Z,2.30
2019-02-27T13:01:05.491Z,2.37
2019-02-27T13:03:32.437Z,2.20
2019-02-27T13:06:01.001Z,2.90
2019-02-27T13:08:28.144Z,2.70
2019-02-27T13:10:57.601Z,2.70
2019-02-27T13:13:25.884Z,2.77
2019-02-27T13:15:53.254Z,2.20
2019-02-27T13:18:20.164Z,2.20
2019-02-27T13:20:46.992Z,2.80
2019-02-27T13:23:13.979Z,2.53
2019-02-27T13:25:40.747Z,3.13
2019-02-27T13:28:07.698Z,2.03
2019-02-27T13:30:34.641Z,1.80
2019-02-27T13:33:02.225Z,2.00
2019-02-27T13:35:29.317Z,2.93
2019-02-27T13:37:58.593Z,2.60
2019-02-27T13:40:25.332Z,2.80
2019-02-27T13:42:53.344Z,2.60
2019-02-27T13:45:22.065Z,2.63
2019-02-27T13:47:49.416Z,2.70
2019-02-27T13:50:16.840Z,2.60
2019-02-27T13:52:44.505Z,2.03
2019-02-27T13:55:13.544Z,2.17
2019-02-27T13:57:40.451Z,2.27
2019-02-27T14:00:13.265Z,2.40
2019-02-27T14:02:40.566Z,2.40
2019-02-27T14:05:07.740Z,2.40
2019-02-27T14:07:34.573Z,3.90
2019-02-27T14:10:01.301Z,3.30
2019-02-27T14:12:29.987Z,3.03
2019-02-27T14:14:57.082Z,4.33
2019-02-27T14:17:23.812Z,6.00
2019-02-27T14:19:50.552Z,2.87
2019-02-27T14:22:17.282Z,2.43
2019-02-27T14:24:44.337Z,3.07
2019-02-27T14:27:11.985Z,3.20
2019-02-27T14:29:41.294Z,2.60
2019-02-27T14:32:08.295Z,2.97
2019-02-27T14:34:35.026Z,2.60
2019-02-27T14:37:01.929Z,5.10
2019-02-27T14:39:29.705Z,2.60
2019-02-27T14:41:57.201Z,2.70
2019-02-27T14:44:23.965Z,3.07
2019-02-27T14:46:50.865Z,2.93
2019-02-27T14:49:17.596Z,2.43
2019-02-27T14:51:44.316Z,2.30
2019-02-27T14:54:11.043Z,2.40
2019-02-27T14:56:37.935Z,2.83
2019-02-27T14:59:04.827Z,3.80
2019-02-27T15:01:32.025Z,3.97
2019-02-27T15:04:01.509Z,4.03
2019-02-27T15:06:28.571Z,3.23
2019-02-27T15:08:58.150Z,3.40
2019-02-27T15:11:23.907Z,4.20
2019-02-27T15:13:50.935Z,5.13
2019-02-27T15:16:17.778Z,4.60
2019-02-27T15:18:46.165Z,4.57
2019-02-27T15:21:13.731Z,4.73
2019-02-27T15:23:40.647Z,4.90
2019-02-27T15:26:07.510Z,4.30
2019-02-27T15:28:34.344Z,4.90
2019-02-27T15:31:01.042Z,4.63
2019-02-27T15:33:32.229Z,4.80
2019-02-27T15:35:58.991Z,4.70
2019-02-27T15:38:26.848Z,5.30
2019-02-27T15:40:53.780Z,5.47
2019-02-27T15:43:20.488Z,5.50
2019-02-27T15:45:48.849Z,4.87
2019-02-27T15:48:17.914Z,5.10
2019-02-27T15:50:44.707Z,5.20
2019-02-27T15:53:15.186Z,6.33
2019-02-27T15:55:42.783Z,4.77
2019-02-27T15:58:10.740Z,5.40
2019-02-27T16:00:37.618Z,4.90
2019-02-27T16:03:04.322Z,5.27
2019-02-27T16:05:31.784Z,5.77
2019-02-27T16:07:58.571Z,5.03
2019-02-27T16:10:25.400Z,5.00
2019-02-27T16:12:52.141Z,4.33
2019-02-27T16:15:18.874Z,5.13
2019-02-27T16:17:45.706Z,5.27
2019-02-27T16:20:16.155Z,7.63
2019-02-27T16:22:42.452Z,5.10
2019-02-27T16:25:10.855Z,5.70
2019-02-27T16:27:38.760Z,5.20
2019-02-27T16:30:07.814Z,7.30
2019-02-27T16:32:34.569Z,5.87
2019-02-27T16:35:04.328Z,4.07
2019-02-27T16:37:31.486Z,3.60
2019-02-27T16:39:58.583Z,4.60
2019-02-27T16:42:25.689Z,4.87
2019-02-27T16:44:54.369Z,4.70
2019-02-27T16:47:23.738Z,5.23
2019-02-27T16:49:54.239Z,5.13
2019-02-27T16:52:21.218Z,4.80
2019-02-27T16:54:50.623Z,5.97
2019-02-27T16:57:20.525Z,5.37
2019-02-27T16:59:49.124Z,6.57
2019-02-27T17:02:16.251Z,5.90
2019-02-27T17:04:42.975Z,6.50
2019-02-27T17:07:09.911Z,5.37
2019-02-27T17:09:36.903Z,5.40
2019-02-27T17:12:06.917Z,6.10
2019-02-27T17:14:32.391Z,5.20
2019-02-27T17:16:59.676Z,5.30
2019-02-27T17:19:26.886Z,5.50
2019-02-27T17:21:58.416Z,5.20
2019-02-27T17:24:22.541Z,4.10
2019-02-27T17:26:49.727Z,4.07
2019-02-27T17:29:16.679Z,3.73
2019-02-27T17:31:49.440Z,3.50
2019-02-27T17:34:13.763Z,4.07
2019-02-27T17:36:41.132Z,3.10
2019-02-27T17:39:08.395Z,3.40
2019-02-27T17:41:35.229Z,4.90
2019-02-27T17:44:05.219Z,4.70
2019-02-27T17:46:30.959Z,4.70
2019-02-27T17:48:58.277Z,4.90
2019-02-27T17:51:25.107Z,4.77
2019-02-27T17:53:51.868Z,4.63
2019-02-27T17:56:19.108Z,4.93
2019-02-27T17:58:46.186Z,4.33
2019-02-27T18:01:15.832Z,6.10
2019-02-27T18:03:42.535Z,5.20
2019-02-27T18:06:09.600Z,4.63
2019-02-27T18:08:38.918Z,4.80
2019-02-27T18:11:05.620Z,4.37
2019-02-27T18:13:35.371Z,3.93
2019-02-27T18:16:01.091Z,3.87
2019-02-27T18:18:28.012Z,3.70
2019-02-27T18:20:59.466Z,3.43
2019-02-27T18:23:26.416Z,3.87
2019-02-27T18:25:53.210Z,3.80
2019-02-27T18:28:19.965Z,3.90
2019-02-27T18:30:46.748Z,4.03
2019-02-27T18:33:15.540Z,3.90
2019-02-27T18:35:42.158Z,3.83
2019-02-27T18:38:08.956Z,3.43
2019-02-27T18:40:36.665Z,3.93
2019-02-27T18:43:03.415Z,3.63
2019-02-27T18:45:32.048Z,4.83
2019-02-27T18:47:59.019Z,3.40
2019-02-27T18:50:27.199Z,4.03
2019-02-27T18:52:54.210Z,3.53
2019-02-27T18:55:20.940Z,3.70
2019-02-27T18:57:47.772Z,4.10
2019-02-27T19:00:19.351Z,3.87
2019-02-27T19:02:46.142Z,3.33
2019-02-27T19:05:13.140Z,2.80
2019-02-27T19:07:40.015Z,2.97
2019-02-27T19:10:07.624Z,2.77
2019-02-27T19:12:34.508Z,3.30
2019-02-27T19:15:01.370Z,3.03
2019-02-27T19:17:31.546Z,3.60
2019-02-27T19:19:56.710Z,4.13
2019-02-27T19:22:23.452Z,3.50
2019-02-27T19:24:50.161Z,3.60
2019-02-27T19:27:18.389Z,3.20
2019-02-27T19:29:45.665Z,2.80
2019-02-27T19:32:16.242Z,3.27
2019-02-27T19:34:44.719Z,3.10
2019-02-27T19:37:11.973Z,3.53
2019-02-27T19:39:38.672Z,3.90
2019-02-27T19:42:05.420Z,3.50
2019-02-27T19:44:32.244Z,3.23
2019-02-27T19:46:59.110Z,3.37
2019-02-27T19:49:25.945Z,3.90
2019-02-27T19:51:54.778Z,3.70
2019-02-27T19:54:21.350Z,3.27
2019-02-27T19:56:50.546Z,3.50
2019-02-27T19:59:17.282Z,3.50
2019-02-27T20:01:48.404Z,4.30
2019-02-27T20:04:12.843Z,3.40
2019-02-27T20:06:39.556Z,3.03
2019-02-27T20:09:07.962Z,3.13
2019-02-27T20:11:40.200Z,3.30
2019-02-27T20:14:09.178Z,3.20
2019-02-27T20:16:35.909Z,3.33
2019-02-27T20:19:02.615Z,3.60
2019-02-27T20:21:31.328Z,4.13
2019-02-27T20:24:01.445Z,2.93
2019-02-27T20:26:26.865Z,3.23
2019-02-27T20:28:53.602Z,2.80
2019-02-27T20:31:23.204Z,2.73
2019-02-27T20:33:49.932Z,2.80
2019-02-27T20:36:17.088Z,2.73
2019-02-27T20:38:43.896Z,3.63
2019-02-27T20:41:10.716Z,3.10
2019-02-27T20:43:37.440Z,3.23
2019-02-27T20:46:04.272Z,3.47
2019-02-27T20:48:32.248Z,3.50
2019-02-27T20:51:02.727Z,3.40
2019-02-27T20:53:29.177Z,3.30
2019-02-27T20:55:56.199Z,3.47
2019-02-27T20:58:26.310Z,3.30
2019-02-27T21:00:53.060Z,3.17
2019-02-27T21:03:19.857Z,3.33
2019-02-27T21:05:48.476Z,3.17
2019-02-27T21:08:15.342Z,3.40
2019-02-27T21:10:42.107Z,3.10
2019-02-27T21:13:09.126Z,3.57
2019-02-27T21:15:35.847Z,3.40
2019-02-27T21:18:02.561Z,3.10
2019-02-27T21:20:29.416Z,2.83
2019-02-27T21:22:56.288Z,2.80
2019-02-27T21:25:23.009Z,4.57
2019-02-27T21:27:49.750Z,3.60
2019-02-27T21:30:18.746Z,3.53
2019-02-27T21:32:45.624Z,3.23
2019-02-27T21:35:12.344Z,3.33
2019-02-27T21:37:44.596Z,5.00
2019-02-27T21:40:09.242Z,4.80
2019-02-27T21:42:35.968Z,3.77
2019-02-27T21:45:09.681Z,4.10
2019-02-27T21:47:38.361Z,3.50
2019-02-27T21:50:07.140Z,3.90
2019-02-27T21:52:34.200Z,4.00
2019-02-27T21:55:00.959Z,3.67
2019-02-27T21:57:27.676Z,3.53
2019-02-27T21:59:54.443Z,3.93
2019-02-27T22:02:21.376Z,3.10
2019-02-27T22:04:48.360Z,3.10
2019-02-27T22:07:15.081Z,3.50
2019-02-27T22:09:44.608Z,3.20
2019-02-27T22:12:11.100Z,3.30
2019-02-27T22:14:38.029Z,3.87
2019-02-27T22:17:05.831Z,3.80
2019-02-27T22:19:34.893Z,3.30
2019-02-27T22:22:01.822Z,3.90
2019-02-27T22:24:28.669Z,4.33
2019-02-27T22:26:55.399Z,4.83
2019-02-27T22:29:25.143Z,5.07
2019-02-27T22:31:51.856Z,4.77
2019-02-27T22:34:18.626Z,4.67
2019-02-27T22:36:45.338Z,4.03
2019-02-27T22:39:12.033Z,3.80
2019-02-27T22:41:40.677Z,3.70
2019-02-27T22:44:07.530Z,4.77
2019-02-27T22:46:34.649Z,4.00
2019-02-27T22:49:01.403Z,3.90
2019-02-27T22:51:28.303Z,3.87
2019-02-27T22:53:55.211Z,4.07
2019-02-27T22:56:21.983Z,3.80
2019-02-27T22:58:51.426Z,4.50
2019-02-27T23:01:31.334Z,4.43
2019-02-27T23:04:08.233Z,4.30
2019-02-27T23:06:38.020Z,4.17
2019-02-27T23:09:09.165Z,4.10
2019-02-27T23:11:36.785Z,4.20
2019-02-27T23:14:05.741Z,4.60
2019-02-27T23:16:32.897Z,4.40
2019-02-27T23:18:59.642Z,4.00
2019-02-27T23:21:26.785Z,4.63
2019-02-27T23:23:54.467Z,4.30
2019-02-27T23:26:21.617Z,4.20
2019-02-27T23:28:48.347Z,4.60
2019-02-27T23:31:22.217Z,4.13
2019-02-27T23:33:45.692Z,4.30
2019-02-27T23:36:12.499Z,4.27
2019-02-27T23:38:39.393Z,4.90
2019-02-27T23:41:06.102Z,4.00
2019-02-27T23:43:34.882Z,4.23
2019-02-27T23:46:02.215Z,4.30
2019-02-27T23:48:29.276Z,4.60
2019-02-27T23:50:56.069Z,3.93
2019-02-27T23:53:24.418Z,4.40
2019-02-27T23:55:51.641Z,4.83
2019-02-27T23:58:18.427Z,3.80
